sensor_id;sensor_type;location;lat;lon;timestamp;temperature;humidity
57552;DHT22;43379;48.160;14.036;2022-09-14T00:00:50;18.40;99.90
57552;DHT22;43379;48.160;14.036;2022-09-14T00:03:17;18.30;99.90
57552;DHT22;43379;48.160;14.036;2022-09-14T00:05:42;18.40;99.90
57552;DHT22;43379;48.160;14.036;2022-09-14T00:08:09;18.40;99.90
57552;DHT22;43379;48.160;14.036;2022-09-14T00:10:40;18.40;99.90
57552;DHT22;43379;48.160;14.036;2022-09-14T00:13:07;18.50;99.90
57552;DHT22;43379;48.160;14.036;2022-09-14T00:15:36;18.40;99.90
57552;DHT22;43379;48.160;14.036;2022-09-14T00:18:02;18.40;99.90
57552;DHT22;43379;48.160;14.036;2022-09-14T00:20:29;18.40;99.90
57552;DHT22;43379;48.160;14.036;2022-09-14T00:22:54;18.30;99.90
57552;DHT22;43379;48.160;14.036;2022-09-14T00:25:20;18.40;99.90
57552;DHT22;43379;48.160;14.036;2022-09-14T00:27:46;18.30;99.90
57552;DHT22;43379;48.160;14.036;2022-09-14T00:30:12;18.20;99.90
57552;DHT22;43379;48.160;14.036;2022-09-14T00:32:38;18.30;99.90
57552;DHT22;43379;48.160;14.036;2022-09-14T00:35:04;18.30;99.90
57552;DHT22;43379;48.160;14.036;2022-09-14T00:37:30;18.40;99.90
57552;DHT22;43379;48.160;14.036;2022-09-14T00:39:55;18.40;99.90
57552;DHT22;43379;48.160;14.036;2022-09-14T00:42:21;18.40;99.90
57552;DHT22;43379;48.160;14.036;2022-09-14T00:47:14;18.40;99.90
57552;DHT22;43379;48.160;14.036;2022-09-14T00:49:43;18.40;99.90
57552;DHT22;43379;48.160;14.036;2022-09-14T00:52:21;18.50;99.90
57552;DHT22;43379;48.160;14.036;2022-09-14T00:54:51;18.60;99.90
57552;DHT22;43379;48.160;14.036;2022-09-14T00:57:18;18.60;99.90
57552;DHT22;43379;48.160;14.036;2022-09-14T00:59:46;18.60;99.90
57552;DHT22;43379;48.160;14.036;2022-09-14T01:02:13;18.60;99.90
57552;DHT22;43379;48.160;14.036;2022-09-14T01:04:39;18.60;99.90
57552;DHT22;43379;48.160;14.036;2022-09-14T01:15:41;18.30;99.90
57552;DHT22;43379;48.160;14.036;2022-09-14T01:20:56;18.30;99.90
57552;DHT22;43379;48.160;14.036;2022-09-14T01:26:30;18.30;99.90
57552;DHT22;43379;48.160;14.036;2022-09-14T01:31:42;18.30;99.90
57552;DHT22;43379;48.160;14.036;2022-09-14T01:34:33;18.30;99.90
57552;DHT22;43379;48.160;14.036;2022-09-14T01:37:13;18.40;99.90
57552;DHT22;43379;48.160;14.036;2022-09-14T01:39:44;18.40;99.90
57552;DHT22;43379;48.160;14.036;2022-09-14T01:42:12;18.30;99.90
57552;DHT22;43379;48.160;14.036;2022-09-14T01:44:41;18.30;99.90
57552;DHT22;43379;48.160;14.036;2022-09-14T01:47:30;18.30;99.90
57552;DHT22;43379;48.160;14.036;2022-09-14T01:50:07;18.30;99.90
57552;DHT22;43379;48.160;14.036;2022-09-14T01:52:40;18.30;99.90
57552;DHT22;43379;48.160;14.036;2022-09-14T01:55:12;18.30;99.90
57552;DHT22;43379;48.160;14.036;2022-09-14T01:57:52;18.30;99.90
57552;DHT22;43379;48.160;14.036;2022-09-14T02:00:21;18.30;99.90
57552;DHT22;43379;48.160;14.036;2022-09-14T02:02:53;18.20;99.90
57552;DHT22;43379;48.160;14.036;2022-09-14T02:05:31;18.20;99.90
57552;DHT22;43379;48.160;14.036;2022-09-14T02:07:58;18.20;99.90
57552;DHT22;43379;48.160;14.036;2022-09-14T02:10:25;18.30;99.90
57552;DHT22;43379;48.160;14.036;2022-09-14T02:12:52;18.20;99.90
57552;DHT22;43379;48.160;14.036;2022-09-14T02:15:19;18.30;99.90
57552;DHT22;43379;48.160;14.036;2022-09-14T02:17:46;18.30;99.90
57552;DHT22;43379;48.160;14.036;2022-09-14T02:20:32;18.30;99.90
57552;DHT22;43379;48.160;14.036;2022-09-14T02:22:58;18.40;99.90
57552;DHT22;43379;48.160;14.036;2022-09-14T02:25:24;18.30;99.90
57552;DHT22;43379;48.160;14.036;2022-09-14T02:27:50;18.30;99.90
57552;DHT22;43379;48.160;14.036;2022-09-14T02:30:17;18.30;99.90
57552;DHT22;43379;48.160;14.036;2022-09-14T02:32:48;18.30;99.90
57552;DHT22;43379;48.160;14.036;2022-09-14T02:35:39;18.40;99.90
57552;DHT22;43379;48.160;14.036;2022-09-14T02:41:17;18.20;99.90
57552;DHT22;43379;48.160;14.036;2022-09-14T02:44:14;18.20;99.90
57552;DHT22;43379;48.160;14.036;2022-09-14T02:46:48;18.20;99.90
57552;DHT22;43379;48.160;14.036;2022-09-14T02:52:11;18.20;99.90
57552;DHT22;43379;48.160;14.036;2022-09-14T02:55:07;18.20;99.90
57552;DHT22;43379;48.160;14.036;2022-09-14T03:00:30;18.30;99.90
57552;DHT22;43379;48.160;14.036;2022-09-14T03:02:56;18.20;99.90
57552;DHT22;43379;48.160;14.036;2022-09-14T03:05:22;18.20;99.90
57552;DHT22;43379;48.160;14.036;2022-09-14T03:07:48;18.20;99.90
57552;DHT22;43379;48.160;14.036;2022-09-14T03:10:14;18.10;99.90
57552;DHT22;43379;48.160;14.036;2022-09-14T03:12:40;18.20;99.90
57552;DHT22;43379;48.160;14.036;2022-09-14T03:15:06;18.20;99.90
57552;DHT22;43379;48.160;14.036;2022-09-14T03:17:32;18.20;99.90
57552;DHT22;43379;48.160;14.036;2022-09-14T03:19:57;18.20;99.90
57552;DHT22;43379;48.160;14.036;2022-09-14T03:22:24;18.20;99.90
57552;DHT22;43379;48.160;14.036;2022-09-14T03:24:49;18.20;99.90
57552;DHT22;43379;48.160;14.036;2022-09-14T03:27:15;18.20;99.90
57552;DHT22;43379;48.160;14.036;2022-09-14T03:29:41;18.20;99.90
57552;DHT22;43379;48.160;14.036;2022-09-14T03:32:06;18.20;99.90
57552;DHT22;43379;48.160;14.036;2022-09-14T03:34:32;18.10;99.90
57552;DHT22;43379;48.160;14.036;2022-09-14T03:36:57;18.00;99.90
57552;DHT22;43379;48.160;14.036;2022-09-14T03:39:23;18.00;99.90
57552;DHT22;43379;48.160;14.036;2022-09-14T03:41:49;18.00;99.90
57552;DHT22;43379;48.160;14.036;2022-09-14T03:44:14;18.00;99.90
57552;DHT22;43379;48.160;14.036;2022-09-14T03:46:40;18.10;99.90
57552;DHT22;43379;48.160;14.036;2022-09-14T03:49:08;18.10;99.90
57552;DHT22;43379;48.160;14.036;2022-09-14T03:51:34;18.10;99.90
57552;DHT22;43379;48.160;14.036;2022-09-14T03:53:59;18.00;99.90
57552;DHT22;43379;48.160;14.036;2022-09-14T03:56:25;18.00;99.90
57552;DHT22;43379;48.160;14.036;2022-09-14T03:58:51;18.00;99.90
57552;DHT22;43379;48.160;14.036;2022-09-14T04:01:20;17.90;99.90
57552;DHT22;43379;48.160;14.036;2022-09-14T04:03:46;18.00;99.90
57552;DHT22;43379;48.160;14.036;2022-09-14T04:06:13;18.10;99.90
57552;DHT22;43379;48.160;14.036;2022-09-14T04:08:41;18.00;99.90
57552;DHT22;43379;48.160;14.036;2022-09-14T04:11:17;18.00;99.90
57552;DHT22;43379;48.160;14.036;2022-09-14T04:13:44;17.90;99.90
57552;DHT22;43379;48.160;14.036;2022-09-14T04:16:10;17.90;99.90
57552;DHT22;43379;48.160;14.036;2022-09-14T04:18:36;17.90;99.90
57552;DHT22;43379;48.160;14.036;2022-09-14T04:21:08;18.00;99.90
57552;DHT22;43379;48.160;14.036;2022-09-14T04:23:35;17.90;99.90
57552;DHT22;43379;48.160;14.036;2022-09-14T04:26:11;18.00;99.90
57552;DHT22;43379;48.160;14.036;2022-09-14T04:28:38;18.10;99.90
57552;DHT22;43379;48.160;14.036;2022-09-14T04:31:04;18.00;99.90
57552;DHT22;43379;48.160;14.036;2022-09-14T04:33:32;18.00;99.90
57552;DHT22;43379;48.160;14.036;2022-09-14T04:36:03;18.00;99.90
57552;DHT22;43379;48.160;14.036;2022-09-14T04:38:31;18.00;99.90
57552;DHT22;43379;48.160;14.036;2022-09-14T04:40:57;17.90;99.90
57552;DHT22;43379;48.160;14.036;2022-09-14T04:43:24;18.00;99.90
57552;DHT22;43379;48.160;14.036;2022-09-14T04:45:50;18.10;99.90
57552;DHT22;43379;48.160;14.036;2022-09-14T04:48:16;18.00;99.90
57552;DHT22;43379;48.160;14.036;2022-09-14T04:50:42;18.10;99.90
57552;DHT22;43379;48.160;14.036;2022-09-14T04:53:08;18.00;99.90
57552;DHT22;43379;48.160;14.036;2022-09-14T04:55:34;18.00;99.90
57552;DHT22;43379;48.160;14.036;2022-09-14T04:58:00;18.00;99.90
57552;DHT22;43379;48.160;14.036;2022-09-14T05:00:26;17.90;99.90
57552;DHT22;43379;48.160;14.036;2022-09-14T05:02:52;17.80;99.90
57552;DHT22;43379;48.160;14.036;2022-09-14T05:05:18;17.80;99.90
57552;DHT22;43379;48.160;14.036;2022-09-14T05:07:43;17.80;99.90
57552;DHT22;43379;48.160;14.036;2022-09-14T05:10:09;17.80;99.90
57552;DHT22;43379;48.160;14.036;2022-09-14T05:12:35;17.80;99.90
57552;DHT22;43379;48.160;14.036;2022-09-14T05:15:01;17.90;99.90
57552;DHT22;43379;48.160;14.036;2022-09-14T05:17:26;18.00;99.90
57552;DHT22;43379;48.160;14.036;2022-09-14T05:19:52;18.00;99.90
57552;DHT22;43379;48.160;14.036;2022-09-14T05:22:18;18.00;99.90
57552;DHT22;43379;48.160;14.036;2022-09-14T05:24:46;18.00;99.90
57552;DHT22;43379;48.160;14.036;2022-09-14T05:27:11;18.00;99.90
57552;DHT22;43379;48.160;14.036;2022-09-14T05:29:37;18.00;99.90
57552;DHT22;43379;48.160;14.036;2022-09-14T05:32:05;18.10;99.90
57552;DHT22;43379;48.160;14.036;2022-09-14T05:34:31;18.10;99.90
57552;DHT22;43379;48.160;14.036;2022-09-14T05:36:56;18.10;99.90
57552;DHT22;43379;48.160;14.036;2022-09-14T05:39:23;18.10;99.90
57552;DHT22;43379;48.160;14.036;2022-09-14T05:41:49;18.20;99.90
57552;DHT22;43379;48.160;14.036;2022-09-14T05:44:15;18.20;99.90
57552;DHT22;43379;48.160;14.036;2022-09-14T05:46:41;18.30;99.90
57552;DHT22;43379;48.160;14.036;2022-09-14T05:49:07;18.40;99.90
57552;DHT22;43379;48.160;14.036;2022-09-14T05:51:32;18.50;99.90
57552;DHT22;43379;48.160;14.036;2022-09-14T05:53:58;18.70;99.90
57552;DHT22;43379;48.160;14.036;2022-09-14T05:56:27;18.80;99.90
57552;DHT22;43379;48.160;14.036;2022-09-14T05:58:53;18.90;99.90
57552;DHT22;43379;48.160;14.036;2022-09-14T06:01:21;18.90;99.90
57552;DHT22;43379;48.160;14.036;2022-09-14T06:03:48;18.80;99.90
57552;DHT22;43379;48.160;14.036;2022-09-14T06:06:16;18.80;99.90
57552;DHT22;43379;48.160;14.036;2022-09-14T06:08:42;18.70;99.90
57552;DHT22;43379;48.160;14.036;2022-09-14T06:11:16;18.80;99.90
57552;DHT22;43379;48.160;14.036;2022-09-14T06:13:42;18.80;99.90
57552;DHT22;43379;48.160;14.036;2022-09-14T06:16:11;18.80;99.90
57552;DHT22;43379;48.160;14.036;2022-09-14T06:18:38;18.80;99.90
57552;DHT22;43379;48.160;14.036;2022-09-14T06:21:05;18.90;99.90
57552;DHT22;43379;48.160;14.036;2022-09-14T06:23:31;18.90;99.90
57552;DHT22;43379;48.160;14.036;2022-09-14T06:25:59;18.90;99.90
57552;DHT22;43379;48.160;14.036;2022-09-14T06:28:26;18.90;99.90
57552;DHT22;43379;48.160;14.036;2022-09-14T06:30:53;18.90;99.90
57552;DHT22;43379;48.160;14.036;2022-09-14T06:33:19;18.90;99.90
57552;DHT22;43379;48.160;14.036;2022-09-14T06:36:02;19.00;99.90
57552;DHT22;43379;48.160;14.036;2022-09-14T06:38:28;19.00;99.90
57552;DHT22;43379;48.160;14.036;2022-09-14T06:40:59;19.00;99.90
57552;DHT22;43379;48.160;14.036;2022-09-14T06:43:27;19.00;99.90
57552;DHT22;43379;48.160;14.036;2022-09-14T06:46:05;19.10;99.90
57552;DHT22;43379;48.160;14.036;2022-09-14T06:48:37;19.10;99.90
57552;DHT22;43379;48.160;14.036;2022-09-14T06:51:19;19.10;99.90
57552;DHT22;43379;48.160;14.036;2022-09-14T06:53:46;19.10;99.90
57552;DHT22;43379;48.160;14.036;2022-09-14T06:56:12;19.20;99.90
57552;DHT22;43379;48.160;14.036;2022-09-14T06:58:38;19.20;99.90
57552;DHT22;43379;48.160;14.036;2022-09-14T07:01:06;19.20;99.90
57552;DHT22;43379;48.160;14.036;2022-09-14T07:03:36;19.30;99.90
57552;DHT22;43379;48.160;14.036;2022-09-14T07:06:03;19.30;99.90
57552;DHT22;43379;48.160;14.036;2022-09-14T07:08:34;19.30;99.90
57552;DHT22;43379;48.160;14.036;2022-09-14T07:11:00;19.30;99.90
57552;DHT22;43379;48.160;14.036;2022-09-14T07:13:27;19.30;99.90
57552;DHT22;43379;48.160;14.036;2022-09-14T07:15:54;19.30;99.90
57552;DHT22;43379;48.160;14.036;2022-09-14T07:18:21;19.30;99.90
57552;DHT22;43379;48.160;14.036;2022-09-14T07:20:48;19.20;99.90
57552;DHT22;43379;48.160;14.036;2022-09-14T07:23:14;19.20;99.90
57552;DHT22;43379;48.160;14.036;2022-09-14T07:25:40;19.10;99.90
57552;DHT22;43379;48.160;14.036;2022-09-14T07:28:06;19.30;99.90
57552;DHT22;43379;48.160;14.036;2022-09-14T07:30:36;19.20;99.90
57552;DHT22;43379;48.160;14.036;2022-09-14T07:33:03;19.20;99.90
57552;DHT22;43379;48.160;14.036;2022-09-14T07:35:30;19.20;99.90
57552;DHT22;43379;48.160;14.036;2022-09-14T07:37:56;19.20;99.90
57552;DHT22;43379;48.160;14.036;2022-09-14T07:40:21;19.20;99.90
57552;DHT22;43379;48.160;14.036;2022-09-14T07:42:52;19.10;99.90
57552;DHT22;43379;48.160;14.036;2022-09-14T07:45:19;19.20;99.90
57552;DHT22;43379;48.160;14.036;2022-09-14T07:47:45;19.10;99.90
57552;DHT22;43379;48.160;14.036;2022-09-14T07:50:11;19.20;99.90
57552;DHT22;43379;48.160;14.036;2022-09-14T07:52:38;19.20;99.90
57552;DHT22;43379;48.160;14.036;2022-09-14T07:55:05;19.20;99.90
57552;DHT22;43379;48.160;14.036;2022-09-14T07:57:31;19.20;99.90
57552;DHT22;43379;48.160;14.036;2022-09-14T07:59:57;19.20;99.90
57552;DHT22;43379;48.160;14.036;2022-09-14T08:02:24;19.30;99.90
57552;DHT22;43379;48.160;14.036;2022-09-14T08:04:49;19.30;99.90
57552;DHT22;43379;48.160;14.036;2022-09-14T08:07:18;19.30;99.90
57552;DHT22;43379;48.160;14.036;2022-09-14T08:09:44;19.30;99.90
57552;DHT22;43379;48.160;14.036;2022-09-14T08:12:11;19.30;99.90
57552;DHT22;43379;48.160;14.036;2022-09-14T08:14:41;19.30;99.90
57552;DHT22;43379;48.160;14.036;2022-09-14T08:17:06;19.20;99.90
57552;DHT22;43379;48.160;14.036;2022-09-14T08:19:34;19.30;99.90
57552;DHT22;43379;48.160;14.036;2022-09-14T08:22:00;19.20;99.90
57552;DHT22;43379;48.160;14.036;2022-09-14T08:24:26;19.20;99.90
57552;DHT22;43379;48.160;14.036;2022-09-14T08:26:52;19.30;99.90
57552;DHT22;43379;48.160;14.036;2022-09-14T08:29:18;19.30;99.90
57552;DHT22;43379;48.160;14.036;2022-09-14T08:31:44;19.40;99.90
57552;DHT22;43379;48.160;14.036;2022-09-14T08:34:11;19.40;99.90
57552;DHT22;43379;48.160;14.036;2022-09-14T08:36:39;19.50;99.90
57552;DHT22;43379;48.160;14.036;2022-09-14T08:39:07;19.60;99.90
57552;DHT22;43379;48.160;14.036;2022-09-14T08:41:55;19.70;99.90
57552;DHT22;43379;48.160;14.036;2022-09-14T08:44:39;19.80;99.90
57552;DHT22;43379;48.160;14.036;2022-09-14T08:47:15;19.80;99.90
57552;DHT22;43379;48.160;14.036;2022-09-14T08:49:47;19.90;99.90
57552;DHT22;43379;48.160;14.036;2022-09-14T08:52:26;20.00;99.90
57552;DHT22;43379;48.160;14.036;2022-09-14T08:54:58;20.00;99.90
57552;DHT22;43379;48.160;14.036;2022-09-14T08:57:44;20.20;99.90
57552;DHT22;43379;48.160;14.036;2022-09-14T09:00:16;20.10;99.90
57552;DHT22;43379;48.160;14.036;2022-09-14T09:06:17;20.30;99.90
57552;DHT22;43379;48.160;14.036;2022-09-14T09:11:33;20.40;99.90
57552;DHT22;43379;48.160;14.036;2022-09-14T09:14:07;20.50;99.90
57552;DHT22;43379;48.160;14.036;2022-09-14T09:16:36;20.40;99.90
57552;DHT22;43379;48.160;14.036;2022-09-14T09:19:05;20.50;99.90
57552;DHT22;43379;48.160;14.036;2022-09-14T09:21:37;20.60;99.90
57552;DHT22;43379;48.160;14.036;2022-09-14T09:26:55;20.40;99.90
57552;DHT22;43379;48.160;14.036;2022-09-14T09:29:21;20.40;99.90
57552;DHT22;43379;48.160;14.036;2022-09-14T09:31:52;20.40;99.90
57552;DHT22;43379;48.160;14.036;2022-09-14T09:34:26;20.40;99.90
57552;DHT22;43379;48.160;14.036;2022-09-14T09:36:52;20.40;99.90
57552;DHT22;43379;48.160;14.036;2022-09-14T09:39:23;20.40;99.90
57552;DHT22;43379;48.160;14.036;2022-09-14T09:44:19;20.50;99.90
57552;DHT22;43379;48.160;14.036;2022-09-14T09:46:55;20.50;99.90
57552;DHT22;43379;48.160;14.036;2022-09-14T09:49:35;20.60;99.90
57552;DHT22;43379;48.160;14.036;2022-09-14T09:52:11;20.70;99.90
57552;DHT22;43379;48.160;14.036;2022-09-14T09:54:41;20.80;99.90
57552;DHT22;43379;48.160;14.036;2022-09-14T09:57:27;21.00;99.90
57552;DHT22;43379;48.160;14.036;2022-09-14T10:00:18;21.20;99.90
57552;DHT22;43379;48.160;14.036;2022-09-14T10:02:44;21.50;99.90
57552;DHT22;43379;48.160;14.036;2022-09-14T10:07:36;22.10;99.90
57552;DHT22;43379;48.160;14.036;2022-09-14T10:10:08;22.40;99.90
57552;DHT22;43379;48.160;14.036;2022-09-14T10:12:36;22.60;99.90
57552;DHT22;43379;48.160;14.036;2022-09-14T10:17:35;23.10;99.90
57552;DHT22;43379;48.160;14.036;2022-09-14T10:20:02;23.30;99.90
57552;DHT22;43379;48.160;14.036;2022-09-14T10:22:42;23.50;99.90
57552;DHT22;43379;48.160;14.036;2022-09-14T10:30:23;24.20;99.90
57552;DHT22;43379;48.160;14.036;2022-09-14T10:35:31;24.60;99.90
57552;DHT22;43379;48.160;14.036;2022-09-14T10:38:04;24.70;99.90
57552;DHT22;43379;48.160;14.036;2022-09-14T10:40:37;24.80;99.90
57552;DHT22;43379;48.160;14.036;2022-09-14T10:46:04;25.30;99.90
57552;DHT22;43379;48.160;14.036;2022-09-14T10:52:04;25.50;99.90
57552;DHT22;43379;48.160;14.036;2022-09-14T10:54:57;25.80;99.90
57552;DHT22;43379;48.160;14.036;2022-09-14T10:58:07;26.10;99.90
57552;DHT22;43379;48.160;14.036;2022-09-14T11:06:35;26.70;99.90
57552;DHT22;43379;48.160;14.036;2022-09-14T11:09:32;26.90;99.90
57552;DHT22;43379;48.160;14.036;2022-09-14T11:12:14;27.00;99.90
57552;DHT22;43379;48.160;14.036;2022-09-14T11:17:37;27.20;99.90
57552;DHT22;43379;48.160;14.036;2022-09-14T11:20:49;27.20;99.90
57552;DHT22;43379;48.160;14.036;2022-09-14T11:26:09;27.50;99.90
57552;DHT22;43379;48.160;14.036;2022-09-14T11:31:15;27.60;99.90
57552;DHT22;43379;48.160;14.036;2022-09-14T11:33:49;27.60;99.90
57552;DHT22;43379;48.160;14.036;2022-09-14T11:36:21;27.50;99.90
57552;DHT22;43379;48.160;14.036;2022-09-14T11:39:12;27.50;99.90
57552;DHT22;43379;48.160;14.036;2022-09-14T11:41:42;27.50;99.90
57552;DHT22;43379;48.160;14.036;2022-09-14T11:46:43;27.40;99.90
57552;DHT22;43379;48.160;14.036;2022-09-14T11:52:24;27.10;99.90
57552;DHT22;43379;48.160;14.036;2022-09-14T11:54:51;27.10;99.90
57552;DHT22;43379;48.160;14.036;2022-09-14T11:57:19;27.10;99.90
57552;DHT22;43379;48.160;14.036;2022-09-14T11:59:57;27.00;99.90
57552;DHT22;43379;48.160;14.036;2022-09-14T12:10:19;26.80;99.90
57552;DHT22;43379;48.160;14.036;2022-09-14T12:12:46;26.60;99.90
57552;DHT22;43379;48.160;14.036;2022-09-14T12:17:38;26.60;99.90
57552;DHT22;43379;48.160;14.036;2022-09-14T12:41:00;26.00;99.90
57552;DHT22;43379;48.160;14.036;2022-09-14T12:46:03;26.00;99.90
57552;DHT22;43379;48.160;14.036;2022-09-14T13:02:53;26.40;99.90
57552;DHT22;43379;48.160;14.036;2022-09-14T13:05:25;26.40;99.90
57552;DHT22;43379;48.160;14.036;2022-09-14T13:07:53;26.50;99.90
57552;DHT22;43379;48.160;14.036;2022-09-14T13:10:24;26.50;99.90
57552;DHT22;43379;48.160;14.036;2022-09-14T13:12:51;26.40;99.90
57552;DHT22;43379;48.160;14.036;2022-09-14T13:15:32;26.40;99.90
57552;DHT22;43379;48.160;14.036;2022-09-14T13:20:51;26.40;99.90
57552;DHT22;43379;48.160;14.036;2022-09-14T13:23:31;26.60;99.90
57552;DHT22;43379;48.160;14.036;2022-09-14T13:28:36;26.70;99.90
57552;DHT22;43379;48.160;14.036;2022-09-14T13:31:02;26.90;99.90
57552;DHT22;43379;48.160;14.036;2022-09-14T13:33:28;27.00;99.90
57552;DHT22;43379;48.160;14.036;2022-09-14T13:36:00;27.00;99.90
57552;DHT22;43379;48.160;14.036;2022-09-14T13:38:30;26.90;99.90
57552;DHT22;43379;48.160;14.036;2022-09-14T13:41:07;27.00;99.90
57552;DHT22;43379;48.160;14.036;2022-09-14T13:43:33;26.90;99.90
57552;DHT22;43379;48.160;14.036;2022-09-14T13:45:59;27.00;99.90
57552;DHT22;43379;48.160;14.036;2022-09-14T13:48:26;27.10;99.90
57552;DHT22;43379;48.160;14.036;2022-09-14T13:50:51;27.10;99.90
57552;DHT22;43379;48.160;14.036;2022-09-14T13:53:46;27.10;99.90
57552;DHT22;43379;48.160;14.036;2022-09-14T13:56:30;27.20;99.90
57552;DHT22;43379;48.160;14.036;2022-09-14T14:01:39;27.20;99.90
57552;DHT22;43379;48.160;14.036;2022-09-14T14:04:18;27.20;99.90
57552;DHT22;43379;48.160;14.036;2022-09-14T14:06:45;27.20;99.90
57552;DHT22;43379;48.160;14.036;2022-09-14T14:09:23;27.10;99.90
57552;DHT22;43379;48.160;14.036;2022-09-14T14:11:53;27.10;99.90
57552;DHT22;43379;48.160;14.036;2022-09-14T14:14:24;27.00;99.90
57552;DHT22;43379;48.160;14.036;2022-09-14T14:19:39;26.90;99.90
57552;DHT22;43379;48.160;14.036;2022-09-14T14:24:41;26.80;99.90
57552;DHT22;43379;48.160;14.036;2022-09-14T14:27:25;26.80;99.90
57552;DHT22;43379;48.160;14.036;2022-09-14T14:29:53;26.90;99.90
57552;DHT22;43379;48.160;14.036;2022-09-14T14:32:18;27.00;99.90
57552;DHT22;43379;48.160;14.036;2022-09-14T14:34:44;27.10;99.90
57552;DHT22;43379;48.160;14.036;2022-09-14T14:37:10;27.10;99.90
57552;DHT22;43379;48.160;14.036;2022-09-14T14:39:36;27.10;99.90
57552;DHT22;43379;48.160;14.036;2022-09-14T14:42:02;27.10;99.90
57552;DHT22;43379;48.160;14.036;2022-09-14T14:44:28;27.10;99.90
57552;DHT22;43379;48.160;14.036;2022-09-14T14:46:55;27.10;99.90
57552;DHT22;43379;48.160;14.036;2022-09-14T14:49:21;27.10;99.90
57552;DHT22;43379;48.160;14.036;2022-09-14T14:51:48;27.00;99.90
57552;DHT22;43379;48.160;14.036;2022-09-14T14:54:14;26.90;99.90
57552;DHT22;43379;48.160;14.036;2022-09-14T14:56:43;26.80;99.90
57552;DHT22;43379;48.160;14.036;2022-09-14T14:59:29;26.70;99.90
57552;DHT22;43379;48.160;14.036;2022-09-14T15:01:56;26.50;99.90
57552;DHT22;43379;48.160;14.036;2022-09-14T15:04:22;26.40;99.90
57552;DHT22;43379;48.160;14.036;2022-09-14T15:06:48;26.30;99.90
57552;DHT22;43379;48.160;14.036;2022-09-14T15:09:25;26.30;99.90
57552;DHT22;43379;48.160;14.036;2022-09-14T15:11:52;26.20;99.90
57552;DHT22;43379;48.160;14.036;2022-09-14T15:14:22;26.20;99.90
57552;DHT22;43379;48.160;14.036;2022-09-14T15:16:49;26.10;99.90
57552;DHT22;43379;48.160;14.036;2022-09-14T15:19:15;26.10;99.90
57552;DHT22;43379;48.160;14.036;2022-09-14T15:21:41;26.00;99.90
57552;DHT22;43379;48.160;14.036;2022-09-14T15:24:08;26.00;99.90
57552;DHT22;43379;48.160;14.036;2022-09-14T15:26:35;26.00;99.90
57552;DHT22;43379;48.160;14.036;2022-09-14T15:29:01;26.00;99.90
57552;DHT22;43379;48.160;14.036;2022-09-14T15:31:28;25.90;99.90
57552;DHT22;43379;48.160;14.036;2022-09-14T15:33:53;25.90;99.90
57552;DHT22;43379;48.160;14.036;2022-09-14T15:39:26;25.80;99.90
57552;DHT22;43379;48.160;14.036;2022-09-14T15:41:53;25.70;99.90
57552;DHT22;43379;48.160;14.036;2022-09-14T15:44:19;25.70;99.90
57552;DHT22;43379;48.160;14.036;2022-09-14T15:46:46;25.60;99.90
57552;DHT22;43379;48.160;14.036;2022-09-14T15:49:15;25.60;99.90
57552;DHT22;43379;48.160;14.036;2022-09-14T15:51:44;25.50;99.90
57552;DHT22;43379;48.160;14.036;2022-09-14T15:54:10;25.50;99.90
57552;DHT22;43379;48.160;14.036;2022-09-14T15:56:36;25.30;99.90
57552;DHT22;43379;48.160;14.036;2022-09-14T15:59:02;25.20;99.90
57552;DHT22;43379;48.160;14.036;2022-09-14T16:01:28;25.20;99.90
57552;DHT22;43379;48.160;14.036;2022-09-14T16:03:57;25.20;99.90
57552;DHT22;43379;48.160;14.036;2022-09-14T16:06:23;25.10;99.90
57552;DHT22;43379;48.160;14.036;2022-09-14T16:08:48;25.10;99.90
57552;DHT22;43379;48.160;14.036;2022-09-14T16:11:14;25.00;99.90
57552;DHT22;43379;48.160;14.036;2022-09-14T16:13:40;25.00;99.90
57552;DHT22;43379;48.160;14.036;2022-09-14T16:16:08;25.00;99.90
57552;DHT22;43379;48.160;14.036;2022-09-14T16:18:34;25.00;99.90
57552;DHT22;43379;48.160;14.036;2022-09-14T16:21:05;25.00;99.90
57552;DHT22;43379;48.160;14.036;2022-09-14T16:23:37;24.90;99.90
57552;DHT22;43379;48.160;14.036;2022-09-14T16:26:11;24.90;99.90
57552;DHT22;43379;48.160;14.036;2022-09-14T16:28:38;24.70;99.90
57552;DHT22;43379;48.160;14.036;2022-09-14T16:31:10;24.80;99.90
57552;DHT22;43379;48.160;14.036;2022-09-14T16:33:41;24.60;99.90
57552;DHT22;43379;48.160;14.036;2022-09-14T16:36:10;24.70;99.90
57552;DHT22;43379;48.160;14.036;2022-09-14T16:38:38;24.70;99.90
57552;DHT22;43379;48.160;14.036;2022-09-14T16:41:04;24.70;99.90
57552;DHT22;43379;48.160;14.036;2022-09-14T16:43:31;24.60;99.90
57552;DHT22;43379;48.160;14.036;2022-09-14T16:46:08;24.50;99.90
57552;DHT22;43379;48.160;14.036;2022-09-14T16:48:37;24.50;99.90
57552;DHT22;43379;48.160;14.036;2022-09-14T16:51:04;24.40;99.90
57552;DHT22;43379;48.160;14.036;2022-09-14T16:53:32;24.30;99.90
57552;DHT22;43379;48.160;14.036;2022-09-14T16:56:23;24.30;99.90
57552;DHT22;43379;48.160;14.036;2022-09-14T16:58:50;24.40;99.90
57552;DHT22;43379;48.160;14.036;2022-09-14T17:01:18;24.40;99.90
57552;DHT22;43379;48.160;14.036;2022-09-14T17:03:46;24.40;99.90
57552;DHT22;43379;48.160;14.036;2022-09-14T17:06:15;24.20;99.90
57552;DHT22;43379;48.160;14.036;2022-09-14T17:08:42;24.10;99.90
57552;DHT22;43379;48.160;14.036;2022-09-14T17:11:08;24.10;99.90
57552;DHT22;43379;48.160;14.036;2022-09-14T17:13:35;24.10;99.90
57552;DHT22;43379;48.160;14.036;2022-09-14T17:16:03;24.10;99.90
57552;DHT22;43379;48.160;14.036;2022-09-14T17:18:29;24.10;99.90
57552;DHT22;43379;48.160;14.036;2022-09-14T17:20:57;24.10;99.90
57552;DHT22;43379;48.160;14.036;2022-09-14T17:23:24;24.10;99.90
57552;DHT22;43379;48.160;14.036;2022-09-14T17:25:50;24.00;99.90
57552;DHT22;43379;48.160;14.036;2022-09-14T17:28:16;24.00;99.90
57552;DHT22;43379;48.160;14.036;2022-09-14T17:30:44;23.90;99.90
57552;DHT22;43379;48.160;14.036;2022-09-14T17:33:10;23.90;99.90
57552;DHT22;43379;48.160;14.036;2022-09-14T17:35:35;23.90;99.90
57552;DHT22;43379;48.160;14.036;2022-09-14T17:38:01;23.80;99.90
57552;DHT22;43379;48.160;14.036;2022-09-14T17:40:30;23.70;99.90
57552;DHT22;43379;48.160;14.036;2022-09-14T17:42:55;23.70;99.90
57552;DHT22;43379;48.160;14.036;2022-09-14T17:45:21;23.60;99.90
57552;DHT22;43379;48.160;14.036;2022-09-14T17:47:47;23.50;99.90
57552;DHT22;43379;48.160;14.036;2022-09-14T17:50:13;23.40;99.90
57552;DHT22;43379;48.160;14.036;2022-09-14T17:52:38;23.30;99.90